createdAt,value
2023-01-28T00:03:33.219Z,-2.23
2023-01-28T00:06:20.458Z,-2.15
2023-01-28T00:09:07.783Z,-2.14
2023-01-28T00:11:54.823Z,-2.17
2023-01-28T00:14:41.968Z,-2.21
2023-01-28T00:17:29.239Z,-2.25
2023-01-28T00:20:16.689Z,-2.26
2023-01-28T00:23:03.958Z,-2.33
2023-01-28T00:25:51.057Z,-2.27
2023-01-28T00:28:38.120Z,-2.19
2023-01-28T00:31:27.577Z,-2.21
2023-01-28T00:34:14.729Z,-2.24
2023-01-28T00:37:01.871Z,-2.25
2023-01-28T00:39:49.817Z,-2.26
2023-01-28T00:42:37.587Z,-2.39
2023-01-28T00:45:24.682Z,-2.35
2023-01-28T00:48:11.791Z,-2.37
2023-01-28T00:50:58.845Z,-2.37
2023-01-28T00:53:46.737Z,-2.21
2023-01-28T00:56:34.092Z,-2.31
2023-01-28T00:59:21.205Z,-2.38
2023-01-28T01:02:12.670Z,-2.42
2023-01-28T01:05:00.117Z,-2.35
2023-01-28T01:07:47.208Z,-2.39
2023-01-28T01:10:34.701Z,-2.57
2023-01-28T01:13:21.768Z,-2.31
2023-01-28T01:16:13.096Z,-2.35
2023-01-28T01:19:00.599Z,-2.29
2023-01-28T01:21:50.883Z,-2.29
2023-01-28T01:24:38.062Z,-2.35
2023-01-28T01:27:25.196Z,-2.39
2023-01-28T01:30:13.136Z,-2.38
2023-01-28T01:33:00.257Z,-2.46
2023-01-28T01:35:54.982Z,-2.37
2023-01-28T01:38:42.763Z,-2.39
2023-01-28T01:41:32.597Z,-2.42
2023-01-28T01:44:57.471Z,-2.43
2023-01-28T01:47:55.710Z,-2.46
2023-01-28T01:50:57.374Z,-2.41
2023-01-28T01:53:46.900Z,-2.43
2023-01-28T01:56:40.621Z,-2.42
2023-01-28T01:59:33.278Z,-2.41
2023-01-28T02:02:20.687Z,-2.39
2023-01-28T02:05:10.099Z,-2.42
2023-01-28T02:08:17.781Z,-2.33
2023-01-28T02:11:08.251Z,-2.44
2023-01-28T02:13:58.402Z,-2.25
2023-01-28T02:16:45.528Z,-2.24
2023-01-28T02:19:53.677Z,-2.31
2023-01-28T02:22:53.049Z,-2.31
2023-01-28T02:26:01.622Z,-2.23
2023-01-28T02:29:13.097Z,-2.23
2023-01-28T02:32:22.468Z,-2.27
2023-01-28T02:35:35.439Z,-2.28
2023-01-28T02:38:44.604Z,-2.26
2023-01-28T02:41:46.082Z,-2.27
2023-01-28T02:44:33.292Z,-2.31
2023-01-28T02:47:38.912Z,-2.34
2023-01-28T02:50:44.674Z,-2.39
2023-01-28T02:53:46.181Z,-2.23
2023-01-28T02:56:45.531Z,-2.20
2023-01-28T02:59:43.244Z,-2.30
2023-01-28T03:02:33.142Z,-2.39
2023-01-28T03:05:31.731Z,-2.39
2023-01-28T03:08:37.452Z,-2.51
2023-01-28T03:11:44.708Z,-2.37
2023-01-28T03:14:52.760Z,-2.34
2023-01-28T03:18:11.562Z,-2.38
2023-01-28T03:21:39.376Z,-2.31
2023-01-28T03:24:51.881Z,-2.38
2023-01-28T03:28:13.498Z,-2.32
2023-01-28T03:31:24.551Z,-2.30
2023-01-28T03:34:30.949Z,-2.31
2023-01-28T03:37:18.126Z,-2.31
2023-01-28T03:40:07.556Z,-2.12
2023-01-28T03:42:56.892Z,-2.12
2023-01-28T03:45:44.020Z,-2.21
2023-01-28T03:48:31.105Z,-2.20
2023-01-28T03:51:18.228Z,-2.28
2023-01-28T03:54:06.135Z,-2.35
2023-01-28T03:56:53.267Z,-2.29
2023-01-28T03:59:40.270Z,-2.14
2023-01-28T04:02:27.435Z,-2.11
2023-01-28T04:05:15.990Z,-1.97
2023-01-28T04:08:03.362Z,-2.22
2023-01-28T04:10:50.510Z,-2.34
2023-01-28T04:13:37.574Z,-2.41
2023-01-28T04:16:24.719Z,-2.31
2023-01-28T04:19:15.450Z,-2.41
2023-01-28T04:22:02.743Z,-2.21
2023-01-28T04:24:49.801Z,-2.32
2023-01-28T04:27:36.959Z,-2.05
2023-01-28T04:30:24.297Z,-2.16
2023-01-28T04:33:11.562Z,-2.15
2023-01-28T04:35:58.627Z,-2.16
2023-01-28T04:38:45.779Z,-2.16
2023-01-28T04:41:32.937Z,-2.19
2023-01-28T04:44:20.040Z,-2.20
2023-01-28T04:47:07.146Z,-2.24
2023-01-28T04:49:54.202Z,-2.22
2023-01-28T04:52:41.509Z,-2.03
2023-01-28T04:55:28.542Z,-2.10
2023-01-28T04:58:15.857Z,-2.27
2023-01-28T05:01:03.056Z,-2.34
2023-01-28T05:03:50.142Z,-2.22
2023-01-28T05:06:37.368Z,-2.27
2023-01-28T05:09:24.539Z,-2.23
2023-01-28T05:12:11.624Z,-2.18
2023-01-28T05:15:00.761Z,-2.20
2023-01-28T05:17:48.071Z,-2.32
2023-01-28T05:20:35.246Z,-2.21
2023-01-28T05:23:22.303Z,-2.26
2023-01-28T05:26:09.935Z,-2.26
2023-01-28T05:28:57.018Z,-2.25
2023-01-28T05:31:44.105Z,-2.26
2023-01-28T05:34:31.196Z,-2.26
2023-01-28T05:37:18.293Z,-2.30
2023-01-28T05:40:06.149Z,-2.25
2023-01-28T05:42:53.285Z,-2.28
2023-01-28T05:45:40.323Z,-1.97
2023-01-28T05:48:27.560Z,-2.11
2023-01-28T05:51:14.583Z,-2.21
2023-01-28T05:54:01.711Z,-2.18
2023-01-28T05:56:48.885Z,-2.07
2023-01-28T05:59:36.040Z,-2.17
2023-01-28T06:02:23.229Z,-1.97
2023-01-28T06:05:10.775Z,-1.88
2023-01-28T06:07:58.002Z,-2.01
2023-01-28T06:10:45.098Z,-2.07
2023-01-28T06:13:32.133Z,-2.21
2023-01-28T06:16:19.260Z,-2.00
2023-01-28T06:19:06.378Z,-2.08
2023-01-28T06:21:53.698Z,-2.09
2023-01-28T06:24:40.804Z,-2.06
2023-01-28T06:27:27.988Z,-2.13
2023-01-28T06:30:15.399Z,-2.15
2023-01-28T06:33:02.827Z,-2.24
2023-01-28T06:35:49.945Z,-2.05
2023-01-28T06:38:37.194Z,-2.12
2023-01-28T06:41:24.466Z,-2.13
2023-01-28T06:44:11.618Z,-1.92
2023-01-28T06:46:58.718Z,-1.95
2023-01-28T06:52:55.167Z,-2.12
2023-01-28T06:55:42.251Z,-2.11
2023-01-28T06:58:29.498Z,-2.18
2023-01-28T07:01:17.200Z,-1.88
2023-01-28T07:04:04.582Z,-1.96
2023-01-28T07:06:51.696Z,-2.09
2023-01-28T07:09:38.807Z,-2.00
2023-01-28T07:12:25.841Z,-1.96
2023-01-28T07:15:15.341Z,-1.90
2023-01-28T07:18:03.160Z,-1.88
2023-01-28T07:20:50.334Z,-1.88
2023-01-28T07:23:37.535Z,-1.98
2023-01-28T07:26:24.641Z,-1.88
2023-01-28T07:29:11.797Z,-1.92
2023-01-28T07:31:58.943Z,-1.93
2023-01-28T07:34:46.024Z,-1.78
2023-01-28T07:37:33.139Z,-1.82
2023-01-28T07:40:20.824Z,-1.75
2023-01-28T07:43:09.161Z,-1.81
2023-01-28T07:45:56.212Z,-1.91
2023-01-28T07:48:43.298Z,-1.82
2023-01-28T07:51:30.394Z,-1.86
2023-01-28T07:54:17.727Z,-1.80
2023-01-28T07:57:10.019Z,-1.72
2023-01-28T07:59:57.315Z,-1.65
2023-01-28T08:02:48.034Z,-1.74
2023-01-28T08:06:01.277Z,-1.69
2023-01-28T08:08:48.846Z,-1.68
2023-01-28T08:11:42.875Z,-1.69
2023-01-28T08:14:29.998Z,-1.67
2023-01-28T08:17:17.092Z,-1.64
2023-01-28T08:20:04.554Z,-1.54
2023-01-28T08:22:51.665Z,-1.62
2023-01-28T08:25:38.945Z,-1.67
2023-01-28T08:28:26.755Z,-1.60
2023-01-28T08:31:13.891Z,-1.51
2023-01-28T08:34:02.328Z,-1.49
2023-01-28T08:36:49.599Z,-1.49
2023-01-28T08:39:36.754Z,-1.54
2023-01-28T08:42:23.941Z,-1.61
2023-01-28T08:45:11.441Z,-1.59
2023-01-28T08:48:06.031Z,-1.48
2023-01-28T08:50:53.253Z,-1.50
2023-01-28T08:53:40.338Z,-1.42
2023-01-28T08:56:27.418Z,-1.31
2023-01-28T08:59:15.323Z,-1.29
2023-01-28T09:02:02.519Z,-1.33
2023-01-28T09:04:49.560Z,-1.33
2023-01-28T09:07:38.145Z,-1.34
2023-01-28T09:10:25.231Z,-1.38
2023-01-28T09:13:15.428Z,-1.24
2023-01-28T09:16:05.355Z,-1.16
2023-01-28T09:18:52.684Z,-1.27
2023-01-28T09:21:40.825Z,-1.22
2023-01-28T09:24:27.964Z,-1.24
2023-01-28T09:27:15.141Z,-1.23
2023-01-28T09:30:02.312Z,-1.22
2023-01-28T09:32:54.555Z,-1.15
2023-01-28T09:35:41.759Z,-1.16
2023-01-28T09:38:30.397Z,-1.28
2023-01-28T09:41:32.589Z,-1.28
2023-01-28T09:44:29.789Z,-1.10
2023-01-28T09:47:26.385Z,-1.03
2023-01-28T09:50:40.723Z,-1.06
2023-01-28T09:53:34.797Z,-1.00
2023-01-28T09:56:34.551Z,-0.99
2023-01-28T09:59:23.505Z,-1.02
2023-01-28T10:02:35.543Z,-1.01
2023-01-28T10:05:28.405Z,-0.97
2023-01-28T10:08:54.061Z,-0.99
2023-01-28T10:12:02.492Z,-0.99
2023-01-28T10:15:37.244Z,-1.14
2023-01-28T10:18:50.956Z,-1.44
2023-01-28T10:21:51.505Z,-1.13
2023-01-28T10:25:07.710Z,-1.04
2023-01-28T10:27:54.740Z,-0.99
2023-01-28T10:30:45.066Z,-0.94
2023-01-28T10:33:37.559Z,-0.89
2023-01-28T10:36:24.808Z,-0.91
2023-01-28T10:39:17.081Z,-0.92
2023-01-28T10:42:35.331Z,-0.95
2023-01-28T10:45:26.644Z,-0.97
2023-01-28T10:48:22.062Z,-0.86
2023-01-28T10:51:09.242Z,-0.88
2023-01-28T10:53:56.361Z,-0.88
2023-01-28T10:56:44.099Z,-0.83
2023-01-28T10:59:34.786Z,-0.82
2023-01-28T11:02:26.978Z,-0.76
2023-01-28T11:05:23.246Z,-0.72
2023-01-28T11:08:15.675Z,-0.74
2023-01-28T11:11:02.848Z,-0.69
2023-01-28T11:13:53.567Z,-0.69
2023-01-28T11:16:40.773Z,-0.76
2023-01-28T11:19:35.191Z,-0.84
2023-01-28T11:22:41.704Z,-0.71
2023-01-28T11:25:33.694Z,-0.65
2023-01-28T11:28:22.837Z,-0.72
2023-01-28T11:31:15.043Z,-0.74
2023-01-28T11:34:05.994Z,-0.70
2023-01-28T11:37:16.334Z,-0.65
2023-01-28T11:40:23.219Z,-0.75
2023-01-28T11:43:10.695Z,-0.74
2023-01-28T11:46:09.392Z,-0.66
2023-01-28T11:49:24.448Z,-0.71
2023-01-28T11:52:55.189Z,-0.69
2023-01-28T11:55:46.720Z,-0.76
2023-01-28T11:58:46.526Z,-0.71
2023-01-28T12:02:14.853Z,-0.74
2023-01-28T12:05:22.240Z,-0.80
2023-01-28T12:08:12.120Z,-0.73
2023-01-28T12:11:14.095Z,-0.74
2023-01-28T12:14:42.828Z,-0.74
2023-01-28T12:18:08.649Z,-0.77
2023-01-28T12:21:21.910Z,-0.84
2023-01-28T12:24:35.683Z,-0.73
2023-01-28T12:27:31.587Z,-0.89
2023-01-28T12:30:33.514Z,-0.77
2023-01-28T12:33:35.807Z,-0.80
2023-01-28T12:36:39.785Z,-0.65
2023-01-28T12:40:13.396Z,-0.64
2023-01-28T12:43:06.190Z,-0.77
2023-01-28T12:46:00.767Z,-0.61
2023-01-28T12:49:10.417Z,-0.57
2023-01-28T12:52:26.526Z,-0.68
2023-01-28T12:55:16.269Z,-0.75
2023-01-28T12:58:07.256Z,-0.76
2023-01-28T13:01:01.769Z,-0.91
2023-01-28T13:04:00.423Z,-0.69
2023-01-28T13:07:07.673Z,-0.62
2023-01-28T13:10:08.214Z,-0.68
2023-01-28T13:12:57.204Z,-0.69
2023-01-28T13:15:46.211Z,-0.67
2023-01-28T13:18:45.683Z,-0.64
2023-01-28T13:21:47.387Z,-0.78
2023-01-28T13:24:36.002Z,-0.84
2023-01-28T13:27:28.489Z,-0.64
2023-01-28T13:30:49.820Z,-0.61
2023-01-28T13:33:42.141Z,-0.60
2023-01-28T13:36:39.155Z,-0.80
2023-01-28T13:39:27.881Z,-0.72
2023-01-28T13:42:27.396Z,-0.64
2023-01-28T13:45:17.848Z,-0.64
2023-01-28T13:48:43.135Z,-0.53
2023-01-28T13:51:37.849Z,-0.53
2023-01-28T13:54:29.262Z,-0.57
2023-01-28T13:57:27.581Z,-0.61
2023-01-28T14:00:26.913Z,-0.64
2023-01-28T14:03:21.230Z,-0.61
2023-01-28T14:06:20.547Z,-0.65
2023-01-28T14:09:19.280Z,-0.72
2023-01-28T14:12:11.696Z,-0.75
2023-01-28T14:15:07.910Z,-0.53
2023-01-28T14:17:57.667Z,-0.62
2023-01-28T14:20:46.020Z,-0.54
2023-01-28T14:23:33.313Z,-0.54
2023-01-28T14:26:43.045Z,-0.53
2023-01-28T14:29:38.851Z,-0.50
2023-01-28T14:32:29.363Z,-0.50
2023-01-28T14:35:28.485Z,-0.58
2023-01-28T14:38:22.087Z,-0.52
2023-01-28T14:41:15.095Z,-0.62
2023-01-28T14:44:02.381Z,-0.52
2023-01-28T14:46:59.531Z,-0.50
2023-01-28T14:50:07.988Z,-0.53
2023-01-28T14:53:26.910Z,-0.63
2023-01-28T14:56:16.976Z,-0.44
2023-01-28T14:59:39.325Z,-0.56
2023-01-28T15:02:31.707Z,-0.44
2023-01-28T15:05:30.096Z,-0.54
2023-01-28T15:08:23.782Z,-0.45
2023-01-28T15:11:16.677Z,-0.55
2023-01-28T15:14:03.816Z,-0.55
2023-01-28T15:16:51.105Z,-0.66
2023-01-28T15:19:38.244Z,-0.55
2023-01-28T15:22:28.787Z,-0.62
2023-01-28T15:25:22.096Z,-0.43
2023-01-28T15:28:18.352Z,-0.40
2023-01-28T15:31:06.241Z,-0.43
2023-01-28T15:34:32.141Z,-0.44
2023-01-28T15:37:20.224Z,-0.47
2023-01-28T15:40:08.522Z,-0.39
2023-01-28T15:42:57.720Z,-0.41
2023-01-28T15:45:48.590Z,-0.47
2023-01-28T15:48:36.762Z,-0.54
2023-01-28T15:51:31.091Z,-0.42
2023-01-28T15:54:18.598Z,-0.41
2023-01-28T15:57:25.255Z,-0.43
2023-01-28T16:00:19.967Z,-0.48
2023-01-28T16:03:10.285Z,-0.44
2023-01-28T16:06:09.706Z,-0.51
2023-01-28T16:08:59.589Z,-0.53
2023-01-28T16:11:46.883Z,-0.51
2023-01-28T16:14:45.292Z,-0.55
2023-01-28T16:17:41.656Z,-0.56
2023-01-28T16:20:38.783Z,-0.53
2023-01-28T16:23:27.996Z,-0.60
2023-01-28T16:26:24.783Z,-0.49
2023-01-28T16:29:17.213Z,-0.57
2023-01-28T16:32:05.188Z,-0.62
2023-01-28T16:34:52.620Z,-0.52
2023-01-28T16:37:40.788Z,-0.36
2023-01-28T16:40:32.301Z,-0.54
2023-01-28T16:43:19.655Z,-0.44
2023-01-28T16:46:11.260Z,-0.49
2023-01-28T16:49:00.513Z,-0.39
2023-01-28T16:51:48.604Z,-0.49
2023-01-28T16:54:36.005Z,-0.46
2023-01-28T16:57:23.802Z,-0.45
2023-01-28T17:00:21.074Z,-0.41
2023-01-28T17:03:08.850Z,-0.51
2023-01-28T17:05:57.497Z,-0.58
2023-01-28T17:08:45.981Z,-0.57
2023-01-28T17:11:34.457Z,-0.68
2023-01-28T17:14:21.695Z,-0.71
2023-01-28T17:17:09.044Z,-0.37
2023-01-28T17:19:56.488Z,-0.54
2023-01-28T17:22:44.310Z,-0.63
2023-01-28T17:25:32.085Z,-0.63
2023-01-28T17:28:20.536Z,-0.62
2023-01-28T17:31:13.080Z,-0.64
2023-01-28T17:34:04.408Z,-0.45
2023-01-28T17:36:52.868Z,-0.47
2023-01-28T17:39:46.645Z,-0.42
2023-01-28T17:42:35.842Z,-0.50
2023-01-28T17:45:28.178Z,-0.46
2023-01-28T17:48:17.414Z,-0.31
2023-01-28T17:51:11.634Z,-0.53
2023-01-28T17:54:00.597Z,-0.57
2023-01-28T17:56:48.577Z,-0.74
2023-01-28T17:59:37.698Z,-0.66
2023-01-28T18:02:25.335Z,-0.62
2023-01-28T18:05:13.288Z,-0.66
2023-01-28T18:08:00.889Z,-0.58
2023-01-28T18:10:48.088Z,-0.29
2023-01-28T18:13:43.390Z,-0.43
2023-01-28T18:16:31.644Z,-0.50
2023-01-28T18:19:19.104Z,-0.57
2023-01-28T18:22:06.793Z,-0.73
2023-01-28T18:25:00.194Z,-0.61
2023-01-28T18:28:03.080Z,-0.69
2023-01-28T18:30:52.045Z,-0.58
2023-01-28T18:33:42.906Z,-0.44
2023-01-28T18:36:30.419Z,-0.54
2023-01-28T18:39:21.084Z,-0.63
2023-01-28T18:42:09.167Z,-0.52
2023-01-28T18:44:56.242Z,-0.61
2023-01-28T18:47:44.661Z,-0.71
2023-01-28T18:50:31.976Z,-0.76
2023-01-28T18:53:22.728Z,-0.62
2023-01-28T18:58:37.955Z,-0.74
2023-01-28T19:01:25.980Z,-0.73
2023-01-28T19:04:14.928Z,-0.70
2023-01-28T19:07:03.940Z,-0.70
2023-01-28T19:09:51.699Z,-0.66
2023-01-28T19:12:40.678Z,-0.66
2023-01-28T19:15:28.552Z,-0.70
2023-01-28T19:18:16.932Z,-0.77
2023-01-28T19:21:06.706Z,-0.70
2023-01-28T19:23:56.971Z,-0.60
2023-01-28T19:26:45.631Z,-0.76
2023-01-28T19:29:36.595Z,-0.76
2023-01-28T19:32:24.578Z,-0.77
2023-01-28T19:35:12.087Z,-0.59
2023-01-28T19:37:59.921Z,-0.72
2023-01-28T19:40:47.393Z,-0.74
2023-01-28T19:43:35.354Z,-0.71
2023-01-28T19:46:22.636Z,-0.77
2023-01-28T19:49:12.816Z,-0.76
2023-01-28T19:52:00.196Z,-0.72
2023-01-28T19:54:48.550Z,-0.80
2023-01-28T19:57:36.186Z,-0.78
2023-01-28T20:00:23.952Z,-0.82
2023-01-28T20:03:11.658Z,-0.70
2023-01-28T20:06:03.977Z,-0.75
2023-01-28T20:08:53.635Z,-0.74
2023-01-28T20:11:41.458Z,-0.81
2023-01-28T20:14:29.209Z,-0.76
2023-01-28T20:17:18.087Z,-0.85
2023-01-28T20:20:06.083Z,-0.67
2023-01-28T20:22:53.931Z,-0.71
2023-01-28T20:25:41.601Z,-0.56
2023-01-28T20:28:29.466Z,-0.47
2023-01-28T20:31:18.944Z,-0.55
2023-01-28T20:34:07.065Z,-0.73
2023-01-28T20:36:54.655Z,-0.90
2023-01-28T20:39:42.494Z,-0.83
2023-01-28T20:42:30.073Z,-0.70
2023-01-28T20:45:18.177Z,-0.83
2023-01-28T20:48:05.915Z,-0.80
2023-01-28T20:50:53.237Z,-0.78
2023-01-28T20:53:41.507Z,-0.80
2023-01-28T20:56:33.335Z,-0.79
2023-01-28T20:59:21.012Z,-0.78
2023-01-28T21:02:10.795Z,-0.68
2023-01-28T21:04:58.087Z,-0.78
2023-01-28T21:07:45.745Z,-0.79
2023-01-28T21:10:33.080Z,-0.76
2023-01-28T21:13:20.411Z,-0.77
2023-01-28T21:16:08.107Z,-0.77
2023-01-28T21:18:56.657Z,-0.75
2023-01-28T21:21:45.537Z,-0.79
2023-01-28T21:24:33.436Z,-0.76
2023-01-28T21:27:20.816Z,-0.73
2023-01-28T21:30:10.642Z,-0.76
2023-01-28T21:32:57.840Z,-0.83
2023-01-28T21:35:45.296Z,-0.55
2023-01-28T21:38:32.443Z,-0.62
2023-01-28T21:41:20.028Z,-0.74
2023-01-28T21:44:07.201Z,-0.81
2023-01-28T21:46:54.459Z,-0.96
2023-01-28T21:49:42.271Z,-0.91
2023-01-28T21:52:29.672Z,-0.87
2023-01-28T21:55:17.764Z,-0.73
2023-01-28T21:58:24.900Z,-0.78
2023-01-28T22:01:12.277Z,-0.88
2023-01-28T22:03:59.448Z,-0.87
2023-01-28T22:06:46.992Z,-0.85
2023-01-28T22:09:35.172Z,-0.97
2023-01-28T22:12:22.770Z,-0.78
2023-01-28T22:15:10.222Z,-0.82
2023-01-28T22:17:57.270Z,-0.97
2023-01-28T22:20:44.830Z,-0.87
2023-01-28T22:23:32.397Z,-0.67
2023-01-28T22:26:19.781Z,-0.81
2023-01-28T22:29:07.733Z,-0.98
2023-01-28T22:31:55.203Z,-1.07
2023-01-28T22:34:42.297Z,-1.10
2023-01-28T22:37:29.366Z,-1.06
2023-01-28T22:40:16.852Z,-1.10
2023-01-28T22:43:04.472Z,-0.98
2023-01-28T22:46:01.265Z,-1.00
2023-01-28T22:48:49.374Z,-1.02
2023-01-28T22:51:36.560Z,-1.04
2023-01-28T22:54:23.665Z,-0.89
2023-01-28T22:57:10.720Z,-0.90
2023-01-28T23:00:00.420Z,-0.94
2023-01-28T23:02:48.030Z,-0.99
2023-01-28T23:05:35.152Z,-0.91
2023-01-28T23:08:22.189Z,-0.99
2023-01-28T23:11:15.587Z,-0.80
2023-01-28T23:14:22.791Z,-0.71
2023-01-28T23:17:28.473Z,-0.83
2023-01-28T23:20:34.260Z,-0.96
2023-01-28T23:23:39.877Z,-0.84
2023-01-28T23:26:26.949Z,-0.93
2023-01-28T23:29:14.115Z,-1.00
2023-01-28T23:32:04.672Z,-1.00
2023-01-28T23:34:51.803Z,-1.05
2023-01-28T23:37:39.270Z,-1.05
2023-01-28T23:40:27.400Z,-1.07
2023-01-28T23:43:14.521Z,-0.99
2023-01-28T23:46:02.331Z,-1.00
2023-01-28T23:48:49.403Z,-1.09
2023-01-28T23:51:36.602Z,-0.89
2023-01-28T23:54:23.705Z,-0.99
2023-01-28T23:57:10.925Z,-1.08
2023-01-28T23:59:57.990Z,-1.08
